sensor_id;sensor_type;location;lat;lon;timestamp;temperature;humidity
13091;DHT22;6611;52.604;13.438;2022-09-28T00:00:46;9.34;89.59
13091;DHT22;6611;52.604;13.438;2022-09-28T00:05:48;9.46;89.20
13091;DHT22;6611;52.604;13.438;2022-09-28T00:10:54;9.59;89.26
13091;DHT22;6611;52.604;13.438;2022-09-28T00:16:01;9.65;88.39
13091;DHT22;6611;52.604;13.438;2022-09-28T00:21:05;9.68;87.96
13091;DHT22;6611;52.604;13.438;2022-09-28T00:26:08;9.65;88.83
13091;DHT22;6611;52.604;13.438;2022-09-28T00:31:10;9.61;89.65
13091;DHT22;6611;52.604;13.438;2022-09-28T00:36:12;9.68;88.90
13091;DHT22;6611;52.604;13.438;2022-09-28T00:41:16;9.69;88.49
13091;DHT22;6611;52.604;13.438;2022-09-28T00:46:21;9.61;89.08
13091;DHT22;6611;52.604;13.438;2022-09-28T00:51:25;9.62;89.32
13091;DHT22;6611;52.604;13.438;2022-09-28T00:56:30;9.72;89.23
13091;DHT22;6611;52.604;13.438;2022-09-28T01:01:33;9.71;89.54
13091;DHT22;6611;52.604;13.438;2022-09-28T01:06:36;9.75;89.53
13091;DHT22;6611;52.604;13.438;2022-09-28T01:11:40;9.71;89.43
13091;DHT22;6611;52.604;13.438;2022-09-28T01:16:48;9.75;88.69
13091;DHT22;6611;52.604;13.438;2022-09-28T01:21:59;9.66;88.80
13091;DHT22;6611;52.604;13.438;2022-09-28T01:27:17;9.44;90.13
13091;DHT22;6611;52.604;13.438;2022-09-28T01:32:31;9.58;90.15
13091;DHT22;6611;52.604;13.438;2022-09-28T01:37:40;9.63;89.59
13091;DHT22;6611;52.604;13.438;2022-09-28T01:42:45;9.61;89.67
13091;DHT22;6611;52.604;13.438;2022-09-28T01:47:48;9.59;89.42
13091;DHT22;6611;52.604;13.438;2022-09-28T01:52:53;9.62;89.91
13091;DHT22;6611;52.604;13.438;2022-09-28T01:58:00;9.65;89.43
13091;DHT22;6611;52.604;13.438;2022-09-28T02:03:07;9.65;89.15
13091;DHT22;6611;52.604;13.438;2022-09-28T02:08:14;9.62;89.62
13091;DHT22;6611;52.604;13.438;2022-09-28T02:13:25;9.59;89.39
13091;DHT22;6611;52.604;13.438;2022-09-28T02:18:28;9.54;89.50
13091;DHT22;6611;52.604;13.438;2022-09-28T02:23:34;9.48;89.73
13091;DHT22;6611;52.604;13.438;2022-09-28T02:28:38;9.46;89.80
13091;DHT22;6611;52.604;13.438;2022-09-28T02:33:42;9.46;90.31
13091;DHT22;6611;52.604;13.438;2022-09-28T02:38:44;9.42;88.68
13091;DHT22;6611;52.604;13.438;2022-09-28T02:43:56;9.44;89.47
13091;DHT22;6611;52.604;13.438;2022-09-28T02:49:09;9.46;88.69
13091;DHT22;6611;52.604;13.438;2022-09-28T02:59:46;9.45;89.38
13091;DHT22;6611;52.604;13.438;2022-09-28T03:10:24;9.35;89.22
13091;DHT22;6611;52.604;13.438;2022-09-28T03:15:28;9.35;89.08
13091;DHT22;6611;52.604;13.438;2022-09-28T03:20:31;9.32;89.30
13091;DHT22;6611;52.604;13.438;2022-09-28T03:25:33;9.27;89.84
13091;DHT22;6611;52.604;13.438;2022-09-28T03:30:36;9.18;89.47
13091;DHT22;6611;52.604;13.438;2022-09-28T03:35:38;9.14;89.16
13091;DHT22;6611;52.604;13.438;2022-09-28T03:40:40;9.11;90.01
13091;DHT22;6611;52.604;13.438;2022-09-28T03:45:43;9.11;90.02
13091;DHT22;6611;52.604;13.438;2022-09-28T03:50:44;9.16;90.10
13091;DHT22;6611;52.604;13.438;2022-09-28T03:55:46;9.20;89.34
13091;DHT22;6611;52.604;13.438;2022-09-28T04:00:49;9.13;89.11
13091;DHT22;6611;52.604;13.438;2022-09-28T04:05:52;9.11;89.17
13091;DHT22;6611;52.604;13.438;2022-09-28T04:10:55;9.07;89.36
13091;DHT22;6611;52.604;13.438;2022-09-28T04:15:59;8.90;88.97
13091;DHT22;6611;52.604;13.438;2022-09-28T04:21:03;8.93;90.10
13091;DHT22;6611;52.604;13.438;2022-09-28T04:26:12;8.96;90.23
13091;DHT22;6611;52.604;13.438;2022-09-28T04:31:20;8.97;90.06
13091;DHT22;6611;52.604;13.438;2022-09-28T04:36:22;8.82;90.04
13091;DHT22;6611;52.604;13.438;2022-09-28T04:41:25;8.82;89.86
13091;DHT22;6611;52.604;13.438;2022-09-28T04:46:28;8.73;90.01
13091;DHT22;6611;52.604;13.438;2022-09-28T04:51:30;8.66;90.56
13091;DHT22;6611;52.604;13.438;2022-09-28T04:56:31;8.75;90.40
13091;DHT22;6611;52.604;13.438;2022-09-28T05:01:34;8.84;90.44
13091;DHT22;6611;52.604;13.438;2022-09-28T05:06:36;8.86;90.51
13091;DHT22;6611;52.604;13.438;2022-09-28T05:11:38;8.89;91.12
13091;DHT22;6611;52.604;13.438;2022-09-28T05:16:41;8.96;90.59
13091;DHT22;6611;52.604;13.438;2022-09-28T05:21:43;9.04;90.26
13091;DHT22;6611;52.604;13.438;2022-09-28T05:26:46;9.07;90.26
13091;DHT22;6611;52.604;13.438;2022-09-28T05:31:49;9.14;89.47
13091;DHT22;6611;52.604;13.438;2022-09-28T05:36:51;9.24;89.65
13091;DHT22;6611;52.604;13.438;2022-09-28T05:41:53;9.13;89.32
13091;DHT22;6611;52.604;13.438;2022-09-28T05:46:58;9.03;89.47
13091;DHT22;6611;52.604;13.438;2022-09-28T05:52:00;9.07;88.97
13091;DHT22;6611;52.604;13.438;2022-09-28T05:57:04;9.23;89.54
13091;DHT22;6611;52.604;13.438;2022-09-28T06:02:09;9.37;88.30
13091;DHT22;6611;52.604;13.438;2022-09-28T06:07:10;9.42;88.65
13091;DHT22;6611;52.604;13.438;2022-09-28T06:12:12;9.48;87.90
13091;DHT22;6611;52.604;13.438;2022-09-28T06:17:16;9.59;87.64
13091;DHT22;6611;52.604;13.438;2022-09-28T06:22:18;9.78;87.68
13091;DHT22;6611;52.604;13.438;2022-09-28T06:27:19;9.91;86.86
13091;DHT22;6611;52.604;13.438;2022-09-28T06:32:22;10.14;86.93
13091;DHT22;6611;52.604;13.438;2022-09-28T06:37:23;10.22;86.35
13091;DHT22;6611;52.604;13.438;2022-09-28T06:42:26;10.27;85.63
13091;DHT22;6611;52.604;13.438;2022-09-28T06:47:29;10.77;85.12
13091;DHT22;6611;52.604;13.438;2022-09-28T06:52:31;11.08;83.76
13091;DHT22;6611;52.604;13.438;2022-09-28T06:57:32;11.36;81.60
13091;DHT22;6611;52.604;13.438;2022-09-28T07:02:35;11.74;80.96
13091;DHT22;6611;52.604;13.438;2022-09-28T07:07:37;12.07;79.80
13091;DHT22;6611;52.604;13.438;2022-09-28T07:12:39;12.35;78.04
13091;DHT22;6611;52.604;13.438;2022-09-28T07:17:42;12.50;77.23
13091;DHT22;6611;52.604;13.438;2022-09-28T07:22:44;12.75;75.91
13091;DHT22;6611;52.604;13.438;2022-09-28T07:27:47;12.67;77.82
13091;DHT22;6611;52.604;13.438;2022-09-28T07:32:50;12.64;77.67
13091;DHT22;6611;52.604;13.438;2022-09-28T07:37:56;12.93;76.07
13091;DHT22;6611;52.604;13.438;2022-09-28T07:43:03;13.10;75.39
13091;DHT22;6611;52.604;13.438;2022-09-28T07:48:06;13.01;77.59
13091;DHT22;6611;52.604;13.438;2022-09-28T07:53:07;13.29;74.42
13091;DHT22;6611;52.604;13.438;2022-09-28T07:58:09;13.42;72.09
13091;DHT22;6611;52.604;13.438;2022-09-28T08:03:12;13.48;72.87
13091;DHT22;6611;52.604;13.438;2022-09-28T08:08:14;13.34;75.02
13091;DHT22;6611;52.604;13.438;2022-09-28T08:13:15;13.35;75.43
13091;DHT22;6611;52.604;13.438;2022-09-28T08:18:19;13.58;73.49
13091;DHT22;6611;52.604;13.438;2022-09-28T08:23:21;13.87;71.72
13091;DHT22;6611;52.604;13.438;2022-09-28T08:28:23;13.71;70.66
13091;DHT22;6611;52.604;13.438;2022-09-28T08:33:27;13.50;70.89
13091;DHT22;6611;52.604;13.438;2022-09-28T08:38:29;13.48;73.25
13091;DHT22;6611;52.604;13.438;2022-09-28T08:43:49;13.01;74.34
13091;DHT22;6611;52.604;13.438;2022-09-28T08:48:58;12.73;75.46
13091;DHT22;6611;52.604;13.438;2022-09-28T08:54:05;12.76;74.67
13091;DHT22;6611;52.604;13.438;2022-09-28T08:59:12;12.53;75.58
13091;DHT22;6611;52.604;13.438;2022-09-28T09:04:16;12.66;73.35
13091;DHT22;6611;52.604;13.438;2022-09-28T09:09:24;12.81;71.26
13091;DHT22;6611;52.604;13.438;2022-09-28T09:14:58;12.90;72.59
13091;DHT22;6611;52.604;13.438;2022-09-28T09:20:11;12.97;71.78
13091;DHT22;6611;52.604;13.438;2022-09-28T09:25:18;12.53;73.34
13091;DHT22;6611;52.604;13.438;2022-09-28T09:30:20;12.67;74.25
13091;DHT22;6611;52.604;13.438;2022-09-28T09:35:38;12.94;72.59
13091;DHT22;6611;52.604;13.438;2022-09-28T09:40:58;13.11;70.33
13091;DHT22;6611;52.604;13.438;2022-09-28T09:46:12;13.31;71.67
13091;DHT22;6611;52.604;13.438;2022-09-28T09:51:23;13.59;69.48
13091;DHT22;6611;52.604;13.438;2022-09-28T09:56:31;13.83;68.54
13091;DHT22;6611;52.604;13.438;2022-09-28T10:01:36;13.95;67.37
13091;DHT22;6611;52.604;13.438;2022-09-28T10:06:40;14.24;64.21
13091;DHT22;6611;52.604;13.438;2022-09-28T10:11:44;14.39;64.13
13091;DHT22;6611;52.604;13.438;2022-09-28T10:16:51;14.53;64.41
13091;DHT22;6611;52.604;13.438;2022-09-28T10:21:55;14.15;65.59
13091;DHT22;6611;52.604;13.438;2022-09-28T10:27:02;14.08;64.44
13091;DHT22;6611;52.604;13.438;2022-09-28T10:32:17;14.53;67.66
13091;DHT22;6611;52.604;13.438;2022-09-28T10:37:20;14.88;63.89
13091;DHT22;6611;52.604;13.438;2022-09-28T10:42:26;15.16;61.41
13091;DHT22;6611;52.604;13.438;2022-09-28T10:47:29;14.42;60.84
13091;DHT22;6611;52.604;13.438;2022-09-28T10:52:36;14.00;62.98
13091;DHT22;6611;52.604;13.438;2022-09-28T10:57:37;13.58;64.39
13091;DHT22;6611;52.604;13.438;2022-09-28T11:02:40;13.60;64.73
13091;DHT22;6611;52.604;13.438;2022-09-28T11:07:45;13.08;65.73
13091;DHT22;6611;52.604;13.438;2022-09-28T11:12:48;12.60;66.89
13091;DHT22;6611;52.604;13.438;2022-09-28T11:17:50;12.75;65.47
13091;DHT22;6611;52.604;13.438;2022-09-28T11:22:55;12.75;68.02
13091;DHT22;6611;52.604;13.438;2022-09-28T11:27:59;12.48;67.46
13091;DHT22;6611;52.604;13.438;2022-09-28T11:33:03;12.72;68.44
13091;DHT22;6611;52.604;13.438;2022-09-28T11:38:30;12.90;68.08
13091;DHT22;6611;52.604;13.438;2022-09-28T11:43:57;12.83;66.80
13091;DHT22;6611;52.604;13.438;2022-09-28T11:49:06;13.04;69.55
13091;DHT22;6611;52.604;13.438;2022-09-28T11:54:19;13.12;68.14
13091;DHT22;6611;52.604;13.438;2022-09-28T11:59:28;13.08;68.41
13091;DHT22;6611;52.604;13.438;2022-09-28T12:04:33;13.12;68.03
13091;DHT22;6611;52.604;13.438;2022-09-28T12:09:41;13.11;68.55
13091;DHT22;6611;52.604;13.438;2022-09-28T12:14:46;13.69;68.20
13091;DHT22;6611;52.604;13.438;2022-09-28T12:19:50;14.62;64.95
13091;DHT22;6611;52.604;13.438;2022-09-28T12:24:56;14.76;65.26
13091;DHT22;6611;52.604;13.438;2022-09-28T12:30:03;14.63;62.88
13091;DHT22;6611;52.604;13.438;2022-09-28T12:35:10;14.32;62.84
13091;DHT22;6611;52.604;13.438;2022-09-28T12:40:35;14.12;63.05
13091;DHT22;6611;52.604;13.438;2022-09-28T12:45:56;13.46;61.70
13091;DHT22;6611;52.604;13.438;2022-09-28T12:51:09;13.46;63.84
13091;DHT22;6611;52.604;13.438;2022-09-28T12:56:20;13.19;64.25
13091;DHT22;6611;52.604;13.438;2022-09-28T13:01:36;13.32;64.43
13091;DHT22;6611;52.604;13.438;2022-09-28T13:06:46;13.19;64.31
13091;DHT22;6611;52.604;13.438;2022-09-28T13:12:12;13.32;65.15
13091;DHT22;6611;52.604;13.438;2022-09-28T13:17:21;13.36;65.02
13091;DHT22;6611;52.604;13.438;2022-09-28T13:22:31;13.38;65.58
13091;DHT22;6611;52.604;13.438;2022-09-28T13:27:39;13.55;65.75
13091;DHT22;6611;52.604;13.438;2022-09-28T13:32:45;13.55;61.62
13091;DHT22;6611;52.604;13.438;2022-09-28T13:43:32;13.63;62.90
13091;DHT22;6611;52.604;13.438;2022-09-28T13:48:42;13.29;64.28
13091;DHT22;6611;52.604;13.438;2022-09-28T13:54:21;13.35;61.92
13091;DHT22;6611;52.604;13.438;2022-09-28T13:59:28;13.14;63.90
13091;DHT22;6611;52.604;13.438;2022-09-28T14:04:53;13.28;64.28
13091;DHT22;6611;52.604;13.438;2022-09-28T14:10:15;13.34;63.25
13091;DHT22;6611;52.604;13.438;2022-09-28T14:15:46;12.94;64.66
13091;DHT22;6611;52.604;13.438;2022-09-28T14:31:42;12.79;63.67
13091;DHT22;6611;52.604;13.438;2022-09-28T14:36:46;12.77;65.23
13091;DHT22;6611;52.604;13.438;2022-09-28T14:42:09;12.80;67.01
13091;DHT22;6611;52.604;13.438;2022-09-28T14:47:33;12.81;66.08
13091;DHT22;6611;52.604;13.438;2022-09-28T14:52:38;12.80;66.26
13091;DHT22;6611;52.604;13.438;2022-09-28T14:57:41;12.77;64.93
13091;DHT22;6611;52.604;13.438;2022-09-28T15:02:47;12.87;65.95
13091;DHT22;6611;52.604;13.438;2022-09-28T15:07:52;12.96;65.26
13091;DHT22;6611;52.604;13.438;2022-09-28T15:12:54;13.16;65.18
13091;DHT22;6611;52.604;13.438;2022-09-28T15:18:07;13.26;65.07
13091;DHT22;6611;52.604;13.438;2022-09-28T15:23:24;13.32;63.60
13091;DHT22;6611;52.604;13.438;2022-09-28T15:28:26;13.36;64.69
13091;DHT22;6611;52.604;13.438;2022-09-28T15:33:31;13.42;67.39
13091;DHT22;6611;52.604;13.438;2022-09-28T15:38:54;13.34;65.67
13091;DHT22;6611;52.604;13.438;2022-09-28T15:44:05;13.43;65.60
13091;DHT22;6611;52.604;13.438;2022-09-28T15:49:22;13.46;66.77
13091;DHT22;6611;52.604;13.438;2022-09-28T15:54:27;13.15;66.58
13091;DHT22;6611;52.604;13.438;2022-09-28T15:59:33;13.03;67.81
13091;DHT22;6611;52.604;13.438;2022-09-28T16:04:38;12.81;69.66
13091;DHT22;6611;52.604;13.438;2022-09-28T16:09:52;12.57;68.37
13091;DHT22;6611;52.604;13.438;2022-09-28T16:14:54;12.53;68.98
13091;DHT22;6611;52.604;13.438;2022-09-28T16:19:58;12.45;71.81
13091;DHT22;6611;52.604;13.438;2022-09-28T16:25:01;12.29;74.36
13091;DHT22;6611;52.604;13.438;2022-09-28T16:30:15;12.27;75.25
13091;DHT22;6611;52.604;13.438;2022-09-28T16:35:23;11.94;76.04
13091;DHT22;6611;52.604;13.438;2022-09-28T16:40:26;12.04;76.44
13091;DHT22;6611;52.604;13.438;2022-09-28T16:45:28;12.00;76.99
13091;DHT22;6611;52.604;13.438;2022-09-28T16:50:31;11.94;77.52
13091;DHT22;6611;52.604;13.438;2022-09-28T16:55:32;11.94;77.84
13091;DHT22;6611;52.604;13.438;2022-09-28T17:00:34;11.91;78.30
13091;DHT22;6611;52.604;13.438;2022-09-28T17:05:37;11.83;77.10
13091;DHT22;6611;52.604;13.438;2022-09-28T17:10:41;11.86;76.43
13091;DHT22;6611;52.604;13.438;2022-09-28T17:15:45;11.83;76.45
13091;DHT22;6611;52.604;13.438;2022-09-28T17:20:52;11.79;76.42
13091;DHT22;6611;52.604;13.438;2022-09-28T17:25:56;11.59;77.05
13091;DHT22;6611;52.604;13.438;2022-09-28T17:30:58;11.42;77.57
13091;DHT22;6611;52.604;13.438;2022-09-28T17:36:01;11.40;78.27
13091;DHT22;6611;52.604;13.438;2022-09-28T17:41:04;11.38;78.52
13091;DHT22;6611;52.604;13.438;2022-09-28T17:46:07;11.20;78.13
13091;DHT22;6611;52.604;13.438;2022-09-28T17:51:17;11.11;78.45
13091;DHT22;6611;52.604;13.438;2022-09-28T17:56:19;11.04;78.44
13091;DHT22;6611;52.604;13.438;2022-09-28T18:01:21;10.93;78.79
13091;DHT22;6611;52.604;13.438;2022-09-28T18:06:24;10.89;79.43
13091;DHT22;6611;52.604;13.438;2022-09-28T18:11:26;10.79;79.83
13091;DHT22;6611;52.604;13.438;2022-09-28T18:16:27;10.80;79.76
13091;DHT22;6611;52.604;13.438;2022-09-28T18:21:31;10.73;79.89
13091;DHT22;6611;52.604;13.438;2022-09-28T18:26:33;10.69;79.80
13091;DHT22;6611;52.604;13.438;2022-09-28T18:31:35;10.65;80.05
13091;DHT22;6611;52.604;13.438;2022-09-28T18:36:38;10.62;80.18
13091;DHT22;6611;52.604;13.438;2022-09-28T18:41:40;10.53;80.51
13091;DHT22;6611;52.604;13.438;2022-09-28T18:46:42;10.53;80.70
13091;DHT22;6611;52.604;13.438;2022-09-28T18:51:45;10.52;81.12
13091;DHT22;6611;52.604;13.438;2022-09-28T18:56:46;10.41;82.06
13091;DHT22;6611;52.604;13.438;2022-09-28T19:01:49;10.37;82.03
13091;DHT22;6611;52.604;13.438;2022-09-28T19:06:53;10.32;82.95
13091;DHT22;6611;52.604;13.438;2022-09-28T19:11:55;10.31;82.85
13091;DHT22;6611;52.604;13.438;2022-09-28T19:16:56;10.37;82.19
13091;DHT22;6611;52.604;13.438;2022-09-28T19:21:59;10.31;82.55
13091;DHT22;6611;52.604;13.438;2022-09-28T19:27:01;10.25;82.13
13091;DHT22;6611;52.604;13.438;2022-09-28T19:32:02;10.07;82.99
13091;DHT22;6611;52.604;13.438;2022-09-28T19:37:05;10.01;82.97
13091;DHT22;6611;52.604;13.438;2022-09-28T19:42:07;9.90;83.51
13091;DHT22;6611;52.604;13.438;2022-09-28T19:47:08;9.86;83.67
13091;DHT22;6611;52.604;13.438;2022-09-28T19:52:13;9.72;83.67
13091;DHT22;6611;52.604;13.438;2022-09-28T19:57:15;9.72;83.66
13091;DHT22;6611;52.604;13.438;2022-09-28T20:02:20;9.63;83.78
13091;DHT22;6611;52.604;13.438;2022-09-28T20:07:23;9.52;84.75
13091;DHT22;6611;52.604;13.438;2022-09-28T20:12:24;9.46;84.85
13091;DHT22;6611;52.604;13.438;2022-09-28T20:17:26;9.58;84.91
13091;DHT22;6611;52.604;13.438;2022-09-28T20:22:29;9.56;85.43
13091;DHT22;6611;52.604;13.438;2022-09-28T20:27:30;9.68;85.28
13091;DHT22;6611;52.604;13.438;2022-09-28T20:32:32;9.78;85.42
13091;DHT22;6611;52.604;13.438;2022-09-28T20:37:35;9.86;85.26
13091;DHT22;6611;52.604;13.438;2022-09-28T20:42:37;9.89;85.37
13091;DHT22;6611;52.604;13.438;2022-09-28T20:47:41;9.93;85.21
13091;DHT22;6611;52.604;13.438;2022-09-28T20:52:44;9.98;85.33
13091;DHT22;6611;52.604;13.438;2022-09-28T20:57:45;10.03;85.45
13091;DHT22;6611;52.604;13.438;2022-09-28T21:02:50;10.10;84.66
13091;DHT22;6611;52.604;13.438;2022-09-28T21:07:53;10.13;85.07
13091;DHT22;6611;52.604;13.438;2022-09-28T21:12:54;10.20;84.51
13091;DHT22;6611;52.604;13.438;2022-09-28T21:17:56;10.22;84.61
13091;DHT22;6611;52.604;13.438;2022-09-28T21:22:59;10.20;84.73
13091;DHT22;6611;52.604;13.438;2022-09-28T21:28:01;10.24;84.75
13091;DHT22;6611;52.604;13.438;2022-09-28T21:33:03;10.30;84.73
13091;DHT22;6611;52.604;13.438;2022-09-28T21:38:05;10.31;84.41
13091;DHT22;6611;52.604;13.438;2022-09-28T21:43:07;10.40;84.02
13091;DHT22;6611;52.604;13.438;2022-09-28T21:48:09;10.32;84.49
13091;DHT22;6611;52.604;13.438;2022-09-28T21:53:11;10.34;84.51
13091;DHT22;6611;52.604;13.438;2022-09-28T21:58:13;10.40;84.16
13091;DHT22;6611;52.604;13.438;2022-09-28T22:03:14;10.35;84.50
13091;DHT22;6611;52.604;13.438;2022-09-28T22:08:17;10.40;84.26
13091;DHT22;6611;52.604;13.438;2022-09-28T22:13:19;10.35;84.20
13091;DHT22;6611;52.604;13.438;2022-09-28T22:18:20;10.37;84.24
13091;DHT22;6611;52.604;13.438;2022-09-28T22:23:23;10.35;84.26
13091;DHT22;6611;52.604;13.438;2022-09-28T22:28:25;10.42;84.16
13091;DHT22;6611;52.604;13.438;2022-09-28T22:33:26;10.42;84.08
13091;DHT22;6611;52.604;13.438;2022-09-28T22:38:30;10.38;84.21
13091;DHT22;6611;52.604;13.438;2022-09-28T22:43:32;10.34;84.56
13091;DHT22;6611;52.604;13.438;2022-09-28T22:48:34;10.38;84.30
13091;DHT22;6611;52.604;13.438;2022-09-28T22:53:37;10.42;83.74
13091;DHT22;6611;52.604;13.438;2022-09-28T22:58:38;10.35;84.03
13091;DHT22;6611;52.604;13.438;2022-09-28T23:03:40;10.28;84.57
13091;DHT22;6611;52.604;13.438;2022-09-28T23:08:44;10.28;84.35
13091;DHT22;6611;52.604;13.438;2022-09-28T23:13:49;10.24;84.79
13091;DHT22;6611;52.604;13.438;2022-09-28T23:18:52;10.20;84.76
13091;DHT22;6611;52.604;13.438;2022-09-28T23:23:57;10.24;84.73
13091;DHT22;6611;52.604;13.438;2022-09-28T23:29:00;10.27;84.44
13091;DHT22;6611;52.604;13.438;2022-09-28T23:34:03;10.22;84.51
13091;DHT22;6611;52.604;13.438;2022-09-28T23:39:08;10.27;84.25
13091;DHT22;6611;52.604;13.438;2022-09-28T23:44:09;10.13;84.64
13091;DHT22;6611;52.604;13.438;2022-09-28T23:49:11;10.11;84.68
13091;DHT22;6611;52.604;13.438;2022-09-28T23:54:14;10.11;84.57
13091;DHT22;6611;52.604;13.438;2022-09-28T23:59:15;9.98;84.88
